createdAt,value
2022-07-30T00:02:08.226Z,97831.56
2022-07-30T00:04:36.263Z,97844.13
2022-07-30T00:07:04.789Z,97845.69
2022-07-30T00:09:34.315Z,97840.63
2022-07-30T00:12:03.248Z,97846.13
2022-07-30T00:14:31.052Z,97849.38
2022-07-30T00:16:58.671Z,97853.75
2022-07-30T00:19:26.288Z,97846.19
2022-07-30T00:21:55.065Z,97846.63
2022-07-30T00:24:22.754Z,97854.44
2022-07-30T00:26:50.361Z,97852.81
2022-07-30T00:29:18.061Z,97850.81
2022-07-30T00:31:45.506Z,97855.53
2022-07-30T00:34:13.808Z,97853.31
2022-07-30T00:36:41.367Z,97850.69
2022-07-30T00:39:08.718Z,97850.13
2022-07-30T00:41:52.655Z,97853.16
2022-07-30T00:44:20.184Z,97858.66
2022-07-30T00:46:47.631Z,97862.59
2022-07-30T00:49:15.807Z,97852.88
2022-07-30T00:51:43.246Z,97865.59
2022-07-30T00:54:11.243Z,97866.03
2022-07-30T00:56:39.264Z,97867.22
2022-07-30T00:59:06.675Z,97864.41
2022-07-30T01:01:34.400Z,97869.47
2022-07-30T01:04:02.291Z,97867.03
2022-07-30T01:06:29.748Z,97867.16
2022-07-30T01:08:57.980Z,97872.88
2022-07-30T01:11:36.828Z,97873.75
2022-07-30T01:14:07.141Z,97877.47
2022-07-30T01:16:36.161Z,97871.09
2022-07-30T01:19:30.831Z,97881.38
2022-07-30T01:22:18.017Z,97881.63
2022-07-30T01:24:58.823Z,97886.09
2022-07-30T01:27:29.110Z,97884.34
2022-07-30T01:29:57.497Z,97882.94
2022-07-30T01:32:26.674Z,97886.16
2022-07-30T01:34:57.357Z,97889.03
2022-07-30T01:37:27.323Z,97889.97
2022-07-30T01:39:55.864Z,97887.78
2022-07-30T01:42:27.158Z,97895.81
2022-07-30T01:44:55.526Z,97887.44
2022-07-30T01:47:24.205Z,97895.38
2022-07-30T01:49:54.559Z,97899.44
2022-07-30T01:52:23.890Z,97902.19
2022-07-30T01:54:54.107Z,97903.53
2022-07-30T01:57:22.535Z,97889.78
2022-07-30T01:59:55.609Z,97899.66
2022-07-30T02:02:23.098Z,97896.47
2022-07-30T02:04:50.764Z,97900.22
2022-07-30T02:08:14.382Z,97900.63
2022-07-30T02:10:51.325Z,97907.91
2022-07-30T02:13:23.077Z,97910.22
2022-07-30T02:15:59.936Z,97906.53
2022-07-30T02:18:52.394Z,97898.69
2022-07-30T02:21:22.269Z,97900.03
2022-07-30T02:23:52.303Z,97909.84
2022-07-30T02:26:24.562Z,97913.91
2022-07-30T02:28:57.774Z,97908.78
2022-07-30T02:31:27.784Z,97909.31
2022-07-30T02:34:00.219Z,97913.66
2022-07-30T02:36:29.018Z,97907.28
2022-07-30T02:38:58.656Z,97913.69
2022-07-30T02:41:28.875Z,97906.13
2022-07-30T02:43:57.372Z,97910.47
2022-07-30T02:46:25.547Z,97912.22
2022-07-30T02:49:15.184Z,97910.75
2022-07-30T02:51:43.656Z,97914.09
2022-07-30T02:54:14.574Z,97917.69
2022-07-30T02:56:46.734Z,97913.44
2022-07-30T02:59:15.694Z,97914.63
2022-07-30T03:01:45.281Z,97912.72
2022-07-30T03:04:14.356Z,97917.31
2022-07-30T03:06:43.926Z,97909.09
2022-07-30T03:09:13.511Z,97906.97
2022-07-30T03:11:45.234Z,97910.84
2022-07-30T03:14:12.920Z,97907.84
2022-07-30T03:16:45.663Z,97906.56
2022-07-30T03:19:17.199Z,97913.88
2022-07-30T03:21:46.333Z,97907.13
2022-07-30T03:24:15.340Z,97901.63
2022-07-30T03:26:45.025Z,97902.81
2022-07-30T03:29:14.590Z,97902.72
2022-07-30T03:31:42.944Z,97881.44
2022-07-30T03:34:13.655Z,97901.84
2022-07-30T03:36:42.359Z,97898.13
2022-07-30T03:39:10.565Z,97899.75
2022-07-30T03:41:38.669Z,97896.63
2022-07-30T03:44:09.552Z,97903.72
2022-07-30T03:46:39.508Z,97901.25
2022-07-30T03:49:09.452Z,97893.63
2022-07-30T03:51:41.641Z,97897.22
2022-07-30T03:54:13.797Z,97898.09
2022-07-30T03:56:42.060Z,97889.09
2022-07-30T03:59:16.732Z,97904.59
2022-07-30T04:01:45.015Z,97899.78
2022-07-30T04:04:30.684Z,97911.03
2022-07-30T04:06:59.153Z,97903.84
2022-07-30T04:09:26.733Z,97903.19
2022-07-30T04:11:54.344Z,97902.56
2022-07-30T04:14:41.449Z,97914.28
2022-07-30T04:17:17.116Z,97914.63
2022-07-30T04:19:49.933Z,97915.78
2022-07-30T04:22:23.706Z,97917.50
2022-07-30T04:24:52.501Z,97910.00
2022-07-30T04:27:20.697Z,97909.00
2022-07-30T04:29:48.507Z,97903.19
2022-07-30T04:32:16.050Z,97904.16
2022-07-30T04:35:06.735Z,97909.69
2022-07-30T04:37:57.371Z,97908.25
2022-07-30T04:40:25.309Z,97905.75
2022-07-30T04:42:52.943Z,97900.63
2022-07-30T04:45:20.555Z,97907.50
2022-07-30T04:47:57.263Z,97909.28
2022-07-30T04:50:30.741Z,97904.84
2022-07-30T04:52:59.080Z,97916.53
2022-07-30T04:55:35.159Z,97917.09
2022-07-30T04:58:04.530Z,97915.38
2022-07-30T05:00:40.763Z,97922.56
2022-07-30T05:03:14.771Z,97913.72
2022-07-30T05:05:47.635Z,97915.34
2022-07-30T05:08:15.704Z,97905.28
2022-07-30T05:10:45.143Z,97906.88
2022-07-30T05:13:14.581Z,97901.16
2022-07-30T05:15:46.565Z,97910.31
2022-07-30T05:18:17.370Z,97905.63
2022-07-30T05:20:45.046Z,97906.41
2022-07-30T05:23:16.597Z,97908.97
2022-07-30T05:25:52.725Z,97901.63
2022-07-30T05:28:39.390Z,97899.97
2022-07-30T05:31:12.130Z,97903.78
2022-07-30T05:33:42.795Z,97902.09
2022-07-30T05:36:16.361Z,97897.75
2022-07-30T05:38:44.113Z,97897.41
2022-07-30T05:41:33.292Z,97902.50
2022-07-30T05:44:22.158Z,97891.69
2022-07-30T05:46:52.270Z,97890.88
2022-07-30T05:49:20.565Z,97884.59
2022-07-30T05:51:48.167Z,97881.19
2022-07-30T05:54:18.776Z,97880.00
2022-07-30T05:57:18.569Z,97872.22
2022-07-30T05:59:47.729Z,97881.31
2022-07-30T06:02:25.432Z,97882.16
2022-07-30T06:05:00.306Z,97877.94
2022-07-30T06:07:28.594Z,97875.94
2022-07-30T06:10:00.511Z,97874.38
2022-07-30T06:12:31.668Z,97875.78
2022-07-30T06:14:59.793Z,97883.91
2022-07-30T06:17:41.174Z,97877.56
2022-07-30T06:20:32.250Z,97866.13
2022-07-30T06:23:20.861Z,97881.50
2022-07-30T06:26:07.583Z,97869.31
2022-07-30T06:28:37.954Z,97874.00
2022-07-30T06:31:11.475Z,97873.03
2022-07-30T06:33:39.099Z,97875.69
2022-07-30T06:36:07.267Z,97868.34
2022-07-30T06:38:47.475Z,97863.59
2022-07-30T06:41:20.097Z,97852.41
2022-07-30T06:43:53.382Z,97866.28
2022-07-30T06:46:39.257Z,97867.88
2022-07-30T06:49:06.941Z,97858.19
2022-07-30T06:51:34.916Z,97860.44
2022-07-30T06:54:02.663Z,97854.06
2022-07-30T06:56:53.471Z,97843.84
2022-07-30T06:59:21.871Z,97858.31
2022-07-30T07:02:07.783Z,97859.84
2022-07-30T07:04:49.088Z,97860.44
2022-07-30T07:07:31.477Z,97845.69
2022-07-30T07:10:04.892Z,97847.56
2022-07-30T07:12:52.535Z,97849.53
2022-07-30T07:15:22.358Z,97845.69
2022-07-30T07:18:06.800Z,97852.06
2022-07-30T07:20:39.464Z,97840.97
2022-07-30T07:23:12.453Z,97833.09
2022-07-30T07:25:42.122Z,97851.03
2022-07-30T07:28:11.142Z,97845.22
2022-07-30T07:30:42.075Z,97853.56
2022-07-30T07:33:10.479Z,97849.22
2022-07-30T07:35:41.119Z,97827.03
2022-07-30T07:38:21.224Z,97841.19
2022-07-30T07:40:50.326Z,97836.97
2022-07-30T07:43:18.043Z,97840.00
2022-07-30T07:45:45.850Z,97833.13
2022-07-30T07:48:13.870Z,97838.66
2022-07-30T07:50:50.417Z,97831.00
2022-07-30T07:53:23.620Z,97837.78
2022-07-30T07:55:51.209Z,97824.91
2022-07-30T07:58:25.302Z,97827.91
2022-07-30T08:00:55.612Z,97828.56
2022-07-30T08:03:32.613Z,97840.06
2022-07-30T08:06:06.813Z,97843.75
2022-07-30T08:08:54.095Z,97849.00
2022-07-30T08:11:39.805Z,97832.72
2022-07-30T08:14:25.564Z,97837.97
2022-07-30T08:17:11.624Z,97833.09
2022-07-30T08:20:02.102Z,97830.81
2022-07-30T08:22:30.765Z,97829.03
2022-07-30T08:24:58.315Z,97831.44
2022-07-30T08:27:26.524Z,97830.78
2022-07-30T08:29:54.184Z,97830.25
2022-07-30T08:32:21.709Z,97830.38
2022-07-30T08:34:49.896Z,97823.44
2022-07-30T08:37:17.321Z,97829.56
2022-07-30T08:39:46.182Z,97834.38
2022-07-30T08:42:14.860Z,97842.69
2022-07-30T08:44:45.326Z,97835.84
2022-07-30T08:47:19.647Z,97827.59
2022-07-30T08:50:08.703Z,97826.84
2022-07-30T08:52:41.346Z,97831.88
2022-07-30T08:55:09.314Z,97822.78
2022-07-30T08:57:40.473Z,97817.94
2022-07-30T09:00:09.102Z,97811.66
2022-07-30T09:02:36.800Z,97809.63
2022-07-30T09:05:06.065Z,97811.75
2022-07-30T09:07:35.109Z,97809.13
2022-07-30T09:10:09.158Z,97806.69
2022-07-30T09:12:41.002Z,97812.38
2022-07-30T09:15:17.634Z,97819.88
2022-07-30T09:17:58.951Z,97806.47
2022-07-30T09:20:31.426Z,97809.38
2022-07-30T09:23:02.412Z,97808.34
2022-07-30T09:25:42.050Z,97796.91
2022-07-30T09:28:33.309Z,97815.75
2022-07-30T09:31:18.534Z,97802.63
2022-07-30T09:34:30.621Z,97804.69
2022-07-30T09:37:03.717Z,97806.59
2022-07-30T09:39:41.491Z,97808.16
2022-07-30T09:42:22.248Z,97808.47
2022-07-30T09:44:52.211Z,97805.69
2022-07-30T09:47:55.294Z,97806.72
2022-07-30T09:50:30.080Z,97791.84
2022-07-30T09:53:09.796Z,97784.06
2022-07-30T09:55:42.483Z,97787.06
2022-07-30T09:58:20.031Z,97799.31
2022-07-30T10:00:59.743Z,97803.63
2022-07-30T10:03:54.869Z,97790.78
2022-07-30T10:06:52.924Z,97778.06
2022-07-30T10:09:37.401Z,97791.56
2022-07-30T10:12:11.912Z,97783.50
2022-07-30T10:14:47.604Z,97784.47
2022-07-30T10:17:18.627Z,97775.72
2022-07-30T10:19:58.946Z,97773.13
2022-07-30T10:22:50.446Z,97773.34
2022-07-30T10:25:28.120Z,97768.25
2022-07-30T10:28:16.467Z,97778.41
2022-07-30T10:30:45.518Z,97772.59
2022-07-30T10:33:34.199Z,97782.59
2022-07-30T10:36:02.879Z,97778.13
2022-07-30T10:38:39.351Z,97788.69
2022-07-30T10:41:42.589Z,97773.78
2022-07-30T10:44:35.166Z,97780.47
2022-07-30T10:47:07.827Z,97774.56
2022-07-30T10:49:41.390Z,97765.72
2022-07-30T10:52:09.883Z,97750.97
2022-07-30T10:54:40.071Z,97767.00
2022-07-30T10:57:09.673Z,97752.81
2022-07-30T10:59:57.060Z,97763.91
2022-07-30T11:02:30.538Z,97758.41
2022-07-30T11:05:18.376Z,97754.56
2022-07-30T11:07:47.452Z,97752.91
2022-07-30T11:10:50.282Z,97751.72
2022-07-30T11:13:17.761Z,97748.91
2022-07-30T11:15:59.999Z,97753.22
2022-07-30T11:18:28.956Z,97751.41
2022-07-30T11:21:21.400Z,97759.75
2022-07-30T11:23:54.946Z,97745.09
2022-07-30T11:26:40.945Z,97753.44
2022-07-30T11:29:33.370Z,97765.16
2022-07-30T11:32:28.262Z,97754.50
2022-07-30T11:35:17.268Z,97754.00
2022-07-30T11:38:02.880Z,97748.94
2022-07-30T11:40:34.663Z,97740.59
2022-07-30T11:43:35.806Z,97740.56
2022-07-30T11:46:10.557Z,97742.88
2022-07-30T11:48:54.776Z,97734.03
2022-07-30T11:51:22.504Z,97724.13
2022-07-30T11:54:04.669Z,97727.66
2022-07-30T11:56:32.606Z,97729.69
2022-07-30T11:59:07.922Z,97737.56
2022-07-30T12:01:35.938Z,97724.34
2022-07-30T12:04:05.548Z,97722.09
2022-07-30T12:06:33.809Z,97721.06
2022-07-30T12:09:01.302Z,97717.00
2022-07-30T12:11:35.788Z,97728.19
2022-07-30T12:14:04.312Z,97714.72
2022-07-30T12:16:33.002Z,97719.81
2022-07-30T12:19:05.591Z,97726.63
2022-07-30T12:21:33.695Z,97714.47
2022-07-30T12:24:03.237Z,97717.25
2022-07-30T12:26:34.420Z,97719.03
2022-07-30T12:29:05.516Z,97724.38
2022-07-30T12:31:39.735Z,97719.31
2022-07-30T12:34:24.893Z,97720.53
2022-07-30T12:36:52.589Z,97704.31
2022-07-30T12:39:23.011Z,97727.41
2022-07-30T12:41:52.646Z,97720.31
2022-07-30T12:44:40.412Z,97727.66
2022-07-30T12:47:20.635Z,97723.09
2022-07-30T12:49:50.260Z,97719.81
2022-07-30T12:52:34.913Z,97726.63
2022-07-30T12:55:12.825Z,97722.59
2022-07-30T12:58:07.583Z,97722.31
2022-07-30T13:00:45.074Z,97717.19
2022-07-30T13:03:23.725Z,97719.03
2022-07-30T13:05:55.503Z,97724.03
2022-07-30T13:08:50.906Z,97721.06
2022-07-30T13:11:19.793Z,97721.69
2022-07-30T13:13:47.955Z,97717.38
2022-07-30T13:16:16.065Z,97715.59
2022-07-30T13:18:43.832Z,97709.50
2022-07-30T13:21:11.714Z,97710.19
2022-07-30T13:23:40.837Z,97715.00
2022-07-30T13:26:09.335Z,97711.97
2022-07-30T13:28:37.278Z,97702.34
2022-07-30T13:31:04.832Z,97700.56
2022-07-30T13:33:32.330Z,97691.94
2022-07-30T13:35:59.830Z,97692.19
2022-07-30T13:38:28.170Z,97700.53
2022-07-30T13:41:02.356Z,97694.72
2022-07-30T13:43:33.759Z,97684.56
2022-07-30T13:46:03.514Z,97689.16
2022-07-30T13:48:32.207Z,97689.91
2022-07-30T13:51:04.097Z,97697.47
2022-07-30T13:53:31.975Z,97694.59
2022-07-30T13:55:59.788Z,97690.28
2022-07-30T13:58:28.002Z,97699.16
2022-07-30T14:00:55.777Z,97690.00
2022-07-30T14:03:23.078Z,97693.44
2022-07-30T14:05:50.641Z,97687.72
2022-07-30T14:08:18.246Z,97698.56
2022-07-30T14:10:45.749Z,97704.84
2022-07-30T14:13:16.052Z,97693.44
2022-07-30T14:15:48.851Z,97694.13
2022-07-30T14:18:17.372Z,97691.09
2022-07-30T14:20:48.546Z,97697.41
2022-07-30T14:23:16.895Z,97696.97
2022-07-30T14:25:44.829Z,97694.69
2022-07-30T14:28:13.150Z,97713.09
2022-07-30T14:30:40.660Z,97697.66
2022-07-30T14:33:08.542Z,97694.88
2022-07-30T14:35:36.263Z,97700.84
2022-07-30T14:38:03.827Z,97692.69
2022-07-30T14:40:31.380Z,97691.16
2022-07-30T14:42:58.810Z,97697.63
2022-07-30T14:45:26.407Z,97696.59
2022-07-30T14:47:56.681Z,97708.63
2022-07-30T14:50:24.351Z,97700.06
2022-07-30T14:52:52.338Z,97700.31
2022-07-30T14:55:19.811Z,97696.28
2022-07-30T14:57:48.387Z,97714.88
2022-07-30T15:00:16.275Z,97705.69
2022-07-30T15:02:43.685Z,97694.53
2022-07-30T15:05:11.188Z,97692.56
2022-07-30T15:07:38.642Z,97708.28
2022-07-30T15:10:09.922Z,97702.66
2022-07-30T15:12:38.705Z,97702.09
2022-07-30T15:15:08.381Z,97711.38
2022-07-30T15:17:39.083Z,97701.56
2022-07-30T15:20:09.352Z,97710.16
2022-07-30T15:22:37.048Z,97698.16
2022-07-30T15:25:05.716Z,97701.88
2022-07-30T15:27:34.369Z,97709.59
2022-07-30T15:30:02.347Z,97706.59
2022-07-30T15:32:31.297Z,97704.78
2022-07-30T15:35:01.595Z,97706.81
2022-07-30T15:37:30.805Z,97697.63
2022-07-30T15:39:58.846Z,97714.19
2022-07-30T15:42:27.689Z,97703.75
2022-07-30T15:45:16.124Z,97705.97
2022-07-30T15:47:42.948Z,97703.19
2022-07-30T15:50:10.672Z,97712.22
2022-07-30T15:52:38.207Z,97702.34
2022-07-30T15:55:07.046Z,97700.34
2022-07-30T15:57:34.723Z,97697.97
2022-07-30T16:00:02.641Z,97700.56
2022-07-30T16:02:39.946Z,97703.81
2022-07-30T16:05:13.455Z,97715.09
2022-07-30T16:07:42.015Z,97718.34
2022-07-30T16:10:10.488Z,97719.03
2022-07-30T16:12:39.766Z,97715.69
2022-07-30T16:15:08.377Z,97720.19
2022-07-30T16:17:37.211Z,97711.50
2022-07-30T16:20:06.385Z,97716.19
2022-07-30T16:22:33.839Z,97714.84
2022-07-30T16:25:01.350Z,97715.53
2022-07-30T16:27:31.265Z,97710.34
2022-07-30T16:29:58.706Z,97718.38
2022-07-30T16:32:26.205Z,97706.72
2022-07-30T16:34:53.546Z,97714.25
2022-07-30T16:37:21.035Z,97707.06
2022-07-30T16:39:48.484Z,97712.50
2022-07-30T16:42:16.153Z,97714.53
2022-07-30T16:44:43.635Z,97702.00
2022-07-30T16:47:13.826Z,97706.13
2022-07-30T16:49:41.613Z,97709.06
2022-07-30T16:52:09.167Z,97709.75
2022-07-30T16:54:36.596Z,97705.91
2022-07-30T16:57:10.399Z,97706.09
2022-07-30T16:59:38.745Z,97703.50
2022-07-30T17:02:11.267Z,97711.03
2022-07-30T17:04:39.486Z,97711.38
2022-07-30T17:07:06.949Z,97707.56
2022-07-30T17:09:36.798Z,97711.00
2022-07-30T17:12:09.500Z,97709.63
2022-07-30T17:14:41.113Z,97719.78
2022-07-30T17:17:13.555Z,97715.16
2022-07-30T17:19:42.369Z,97712.50
2022-07-30T17:22:09.845Z,97717.66
2022-07-30T17:24:37.353Z,97707.41
2022-07-30T17:27:04.954Z,97716.94
2022-07-30T17:29:32.468Z,97705.47
2022-07-30T17:32:00.247Z,97711.28
2022-07-30T17:34:28.073Z,97711.88
2022-07-30T17:36:55.543Z,97710.78
2022-07-30T17:40:27.311Z,97712.16
2022-07-30T17:42:11.887Z,97716.31
2022-07-30T17:44:41.030Z,97715.72
2022-07-30T17:47:16.284Z,97710.78
2022-07-30T17:49:44.083Z,97696.81
2022-07-30T17:52:11.572Z,97695.75
2022-07-30T17:54:39.232Z,97690.69
2022-07-30T17:57:06.772Z,97702.69
2022-07-30T17:59:34.323Z,97696.22
2022-07-30T18:02:02.040Z,97694.22
2022-07-30T18:04:29.818Z,97693.34
2022-07-30T18:06:57.273Z,97697.50
2022-07-30T18:09:24.857Z,97700.75
2022-07-30T18:11:52.358Z,97680.22
2022-07-30T18:14:20.126Z,97682.22
2022-07-30T18:16:47.652Z,97690.25
2022-07-30T18:19:26.956Z,97684.00
2022-07-30T18:21:54.978Z,97689.84
2022-07-30T18:24:24.871Z,97689.56
2022-07-30T18:26:53.016Z,97695.41
2022-07-30T18:29:21.125Z,97686.06
2022-07-30T18:31:48.736Z,97697.88
2022-07-30T18:34:16.235Z,97685.47
2022-07-30T18:36:43.926Z,97686.22
2022-07-30T18:39:11.415Z,97679.47
2022-07-30T18:41:39.282Z,97683.16
2022-07-30T18:44:06.857Z,97670.75
2022-07-30T18:46:34.474Z,97688.84
2022-07-30T18:49:20.904Z,97681.22
2022-07-30T18:51:49.564Z,97678.63
2022-07-30T18:54:18.409Z,97690.75
2022-07-30T18:56:45.907Z,97681.38
2022-07-30T18:59:13.439Z,97681.25
2022-07-30T19:01:41.069Z,97689.38
2022-07-30T19:04:08.835Z,97683.84
2022-07-30T19:06:38.273Z,97677.72
2022-07-30T19:09:09.118Z,97682.94
2022-07-30T19:11:44.677Z,97679.91
2022-07-30T19:14:13.448Z,97680.06
2022-07-30T19:16:42.155Z,97683.00
2022-07-30T19:19:10.569Z,97681.13
2022-07-30T19:21:37.964Z,97676.09
2022-07-30T19:24:06.094Z,97678.72
2022-07-30T19:26:33.570Z,97675.66
2022-07-30T19:29:00.990Z,97669.06
2022-07-30T19:31:28.427Z,97673.84
2022-07-30T19:33:55.834Z,97669.81
2022-07-30T19:36:24.034Z,97673.19
2022-07-30T19:38:57.897Z,97671.69
2022-07-30T19:41:25.452Z,97681.22
2022-07-30T19:43:55.769Z,97667.56
2022-07-30T19:46:25.995Z,97674.31
2022-07-30T19:48:53.488Z,97670.78
2022-07-30T19:51:25.191Z,97672.94
2022-07-30T19:54:08.381Z,97665.88
2022-07-30T19:56:37.871Z,97674.63
2022-07-30T19:59:14.744Z,97674.50
2022-07-30T20:01:43.453Z,97682.63
2022-07-30T20:04:11.893Z,97678.03
2022-07-30T20:06:46.082Z,97672.97
2022-07-30T20:09:14.971Z,97676.03
2022-07-30T20:11:44.092Z,97680.94
2022-07-30T20:14:11.595Z,97671.00
2022-07-30T20:16:44.131Z,97684.63
2022-07-30T20:19:15.654Z,97673.91
2022-07-30T20:24:31.569Z,97674.22
2022-07-30T20:26:59.878Z,97660.25
2022-07-30T20:29:27.852Z,97668.53
2022-07-30T20:31:55.359Z,97664.72
2022-07-30T20:34:25.748Z,97668.72
2022-07-30T20:36:53.840Z,97673.44
2022-07-30T20:39:25.636Z,97678.53
2022-07-30T20:42:08.136Z,97665.78
2022-07-30T20:44:37.346Z,97663.03
2022-07-30T20:47:08.412Z,97658.75
2022-07-30T20:49:39.715Z,97666.72
2022-07-30T20:52:09.936Z,97665.63
2022-07-30T20:54:37.836Z,97666.09
2022-07-30T20:57:15.388Z,97662.88
2022-07-30T20:59:44.072Z,97658.00
2022-07-30T21:02:15.237Z,97662.25
2022-07-30T21:04:46.323Z,97662.44
2022-07-30T21:07:14.122Z,97658.13
2022-07-30T21:09:51.905Z,97655.38
2022-07-30T21:12:20.170Z,97658.59
2022-07-30T21:15:00.494Z,97661.66
2022-07-30T21:17:28.314Z,97670.09
2022-07-30T21:19:55.763Z,97661.97
2022-07-30T21:22:23.953Z,97667.00
2022-07-30T21:24:51.415Z,97653.22
2022-07-30T21:27:19.058Z,97658.44
2022-07-30T21:29:46.685Z,97662.41
2022-07-30T21:32:15.256Z,97663.63
2022-07-30T21:34:46.371Z,97661.63
2022-07-30T21:37:15.732Z,97654.59
2022-07-30T21:39:43.621Z,97649.69
2022-07-30T21:42:11.497Z,97658.41
2022-07-30T21:44:39.642Z,97651.84
2022-07-30T21:47:08.438Z,97653.81
2022-07-30T21:49:38.265Z,97650.31
2022-07-30T21:52:08.606Z,97657.78
2022-07-30T21:54:45.082Z,97651.50
2022-07-30T21:57:13.255Z,97650.13
2022-07-30T21:59:41.255Z,97640.19
2022-07-30T22:02:18.747Z,97643.22
2022-07-30T22:04:47.615Z,97620.09
2022-07-30T22:07:18.460Z,97649.53
2022-07-30T22:09:49.440Z,97641.25
2022-07-30T22:12:18.361Z,97646.75
2022-07-30T22:14:49.431Z,97631.72
2022-07-30T22:17:23.279Z,97652.13
2022-07-30T22:20:04.895Z,97648.09
2022-07-30T22:22:37.766Z,97641.09
2022-07-30T22:25:09.884Z,97652.41
2022-07-30T22:27:55.962Z,97645.06
2022-07-30T22:30:27.090Z,97641.84
2022-07-30T22:32:55.755Z,97643.06
2022-07-30T22:35:32.429Z,97643.22
2022-07-30T22:38:03.008Z,97651.63
2022-07-30T22:40:30.662Z,97643.06
2022-07-30T22:42:58.135Z,97651.00
2022-07-30T22:45:44.992Z,97635.84
2022-07-30T22:48:13.205Z,97637.19
2022-07-30T22:50:41.019Z,97633.06
2022-07-30T22:53:19.740Z,97634.44
2022-07-30T22:55:56.766Z,97635.19
2022-07-30T22:58:26.108Z,97640.06
2022-07-30T23:00:53.977Z,97632.72
2022-07-30T23:03:21.465Z,97635.94
2022-07-30T23:05:56.591Z,97634.38
2022-07-30T23:11:15.144Z,97640.53
2022-07-30T23:12:19.612Z,97681.25
2022-07-30T23:12:34.436Z,97640.22
2022-07-30T23:13:42.887Z,97639.13
2022-07-30T23:16:10.849Z,97640.34
2022-07-30T23:18:38.439Z,97629.22
2022-07-30T23:21:06.055Z,97639.88
2022-07-30T23:23:33.737Z,97637.56
2022-07-30T23:26:03.351Z,97639.13
2022-07-30T23:28:30.877Z,97638.22
2022-07-30T23:30:58.305Z,97637.47
2022-07-30T23:33:25.722Z,97642.31
2022-07-30T23:35:53.182Z,97632.63
2022-07-30T23:38:20.738Z,97642.44
2022-07-30T23:40:48.822Z,97638.16
2022-07-30T23:43:17.364Z,97636.47
2022-07-30T23:45:45.195Z,97633.09
2022-07-30T23:48:12.628Z,97629.44
2022-07-30T23:50:40.045Z,97623.16
2022-07-30T23:53:07.440Z,97617.31
2022-07-30T23:55:34.934Z,97620.41
2022-07-30T23:58:02.357Z,97630.19
